Flight Track Log - Related Links

Times and Time Zones

All times are in EDT time to prevent confusion due to time zone crossing. See the DAL3982 flight status page for this flight to view local times or setup timezone preferences in your user account.

Time Position Orientation Groundspeed Altitude Reporting Facility
EDT Latitude Longitude Course Direction KTS MPH feet Rate Location/Type
Sun 09:12:34 PM 33.6500 -84.3833 North 156 180 2,700  Level Atlanta TRACON
Sun 09:13:28 PM 33.6500 -84.3333 90° East 213 245 3,600 2,048 Climbing Atlanta TRACON
Sun 09:14:40 PM 33.6833 -84.2333 68° East 257 296 7,000 2,632 Climbing Atlanta TRACON
Sun 09:15:00 PM 33.9357 -84.2667 North  Level FlightAware Approximate
Sun 09:15:22 PM 33.7000 -84.1833 68° East 295 339 8,600  Level Atlanta TRACON
Sun 09:16:00 PM 34.0598 -84.2667 North  Level FlightAware Approximate
Sun 09:16:22 PM 33.7833 -84.1833 360° North 299 344 10,000  Level Atlanta TRACON
Sun 09:17:00 PM 34.1839 -84.2667 North  Level FlightAware Approximate
Sun 09:17:16 PM 33.8667 -84.2000 351° North 296 341 10,000  Level Atlanta TRACON
Sun 09:19:41 PM 34.0569 -84.2769 341° North 330 380 13,900 1,727 Climbing Atlanta Center
Sun 09:20:41 PM 34.1656 -84.2797 359° North 360 414 15,900 1,750 Climbing Atlanta Center
Sun 09:21:41 PM 34.2783 -84.2800 360° North 394 453 17,400 1,450 Climbing Atlanta Center
Sun 09:22:41 PM 34.3953 -84.2578 North 417 480 18,800 1,600 Climbing Atlanta Center
Sun 09:23:41 PM 34.5119 -84.2303 11° North 427 491 20,600 1,600 Climbing Atlanta Center
Sun 09:24:41 PM 34.6311 -84.2003 12° North 435 501 22,000 1,350 Climbing Atlanta Center
Sun 09:25:41 PM 34.7458 -84.1753 10° North 429 494 23,300 1,250 Climbing Atlanta Center
Sun 09:26:41 PM 34.8711 -84.1475 10° North 429 494 24,500 1,100 Climbing Atlanta Center
Sun 09:27:41 PM 34.9964 -84.1147 12° North 442 509 25,500 1,000 Climbing Atlanta Center
Sun 09:28:41 PM 35.1258 -84.0844 11° North 456 525 26,500 1,250 Climbing Atlanta Center
Sun 09:29:41 PM 35.2531 -84.0567 10° North 461 531 28,000 1,400 Climbing Atlanta Center
Sun 09:30:41 PM 35.3803 -84.0233 12° North 466 536 29,300 1,150 Climbing Atlanta Center
Sun 09:31:41 PM 35.5097 -83.9903 12° North 471 542 30,300 1,000 Climbing Atlanta Center
Sun 09:32:41 PM 35.6389 -83.9622 10° North 471 542 31,300 1,000 Climbing Atlanta Center
Sun 09:33:41 PM 35.7683 -83.9286 12° North 466 536 32,300 850 Climbing Atlanta Center
Sun 09:34:41 PM 35.8997 -83.8928 12° North 466 536 33,000 350 Climbing Atlanta Center
Sun 09:35:41 PM 36.0247 -83.8206 25° Northeast 478 550 33,000 400 Level Atlanta Center
Sun 09:36:41 PM 36.1517 -83.7406 27° Northeast 494 568 33,800 591 Climbing Atlanta Center
Sun 09:39:04 PM 36.4447 -83.5519 27° Northeast 499 574 35,000 353 Climbing Indianapolis Center
Sun 09:40:05 PM 36.5772 -83.4697 26° Northeast 512 589 35,000  Level Indianapolis Center
Sun 09:41:07 PM 36.7033 -83.3892 27° Northeast 511 588 35,000  Level Indianapolis Center
Sun 09:42:08 PM 36.8300 -83.3067 28° Northeast 509 586 35,000  Level Indianapolis Center
Sun 09:43:09 PM 36.9558 -83.2261 27° Northeast 504 580 35,000  Level Indianapolis Center
Sun 09:44:10 PM 37.0814 -83.1433 28° Northeast 501 577 35,000  Level Indianapolis Center
Sun 09:45:11 PM 37.2075 -83.0625 27° Northeast 502 578 35,000  Level Indianapolis Center
Sun 09:46:12 PM 37.3319 -82.9811 27° Northeast 499 574 35,000  Level Indianapolis Center
Sun 09:47:14 PM 37.4564 -82.8992 28° Northeast 499 574 35,000  Level Indianapolis Center
Sun 09:48:15 PM 37.5811 -82.8164 28° Northeast 510 587 35,000  Level Indianapolis Center
Sun 09:49:16 PM 37.7042 -82.7347 28° Northeast 500 575 35,000  Level Indianapolis Center
Sun 09:50:17 PM 37.8281 -82.6542 27° Northeast 497 572 35,000  Level Indianapolis Center
Sun 09:51:18 PM 37.9503 -82.5714 28° Northeast 495 570 35,000  Level Indianapolis Center
Sun 09:52:19 PM 38.0714 -82.4892 28° Northeast 493 567 35,000  Level Indianapolis Center
Sun 09:53:21 PM 38.2033 -82.4011 28° Northeast 498 573 35,000  Level Indianapolis Center
Sun 09:54:22 PM 38.3253 -82.3186 28° Northeast 495 570 35,000  Level Indianapolis Center
Sun 09:55:23 PM 38.4472 -82.2356 28° Northeast 494 568 35,000  Level Indianapolis Center
Sun 09:56:24 PM 38.5692 -82.1525 28° Northeast 493 567 35,000  Level Indianapolis Center
Sun 09:57:25 PM 38.6922 -82.0692 28° Northeast 495 570 35,000  Level Indianapolis Center
Sun 09:58:26 PM 38.8117 -81.9792 30° Northeast 493 567 35,000  Level Indianapolis Center
Sun 09:59:27 PM 38.9275 -81.8811 33° Northeast 494 568 35,000  Level Indianapolis Center
Sun 10:00:28 PM 39.0425 -81.7819 34° Northeast 493 567 35,000  Level Indianapolis Center
Sun 10:01:29 PM 39.1575 -81.6842 33° Northeast 491 565 35,000  Level Indianapolis Center
Sun 10:02:30 PM 39.2725 -81.5842 34° Northeast 495 570 35,000  Level Indianapolis Center
Sun 10:03:31 PM 39.3867 -81.4869 33° Northeast 489 563 35,000  Level Indianapolis Center
Sun 10:04:32 PM 39.5000 -81.3892 34° Northeast 488 562 35,000  Level Indianapolis Center
Sun 10:05:04 PM 39.5792 -81.3211 34° Northeast 491 565 35,000  Level Cleveland Center
Sun 10:06:04 PM 39.6861 -81.2142 38° Northeast 491 565 35,000  Level Cleveland Center
Sun 10:07:04 PM 39.7908 -81.0964 41° Northeast 491 565 35,000  Level Cleveland Center
Sun 10:08:04 PM 39.8956 -80.9836 40° Northeast 491 565 35,000  Level Cleveland Center
Sun 10:09:04 PM 40.0000 -80.8678 40° Northeast 491 565 35,000  Level Cleveland Center
Sun 10:10:04 PM 40.1025 -80.7542 40° Northeast 486 559 35,000  Level Cleveland Center
Sun 10:11:04 PM 40.2069 -80.6347 41° Northeast 486 559 35,000  Level Cleveland Center
Sun 10:12:04 PM 40.3111 -80.5178 41° Northeast 486 559 35,000  Level Cleveland Center
Sun 10:13:04 PM 40.4153 -80.4031 40° Northeast 486 559 35,000  Level Cleveland Center
Sun 10:14:04 PM 40.5150 -80.2881 41° Northeast 480 552 35,000  Level Cleveland Center
Sun 10:15:04 PM 40.6189 -80.1700 41° Northeast 480 552 35,000  Level Cleveland Center
Sun 10:16:04 PM 40.7206 -80.0517 41° Northeast 480 552 35,000  Level Cleveland Center
Sun 10:17:04 PM 40.8136 -79.9411 42° Northeast 486 559 35,000  Level Cleveland Center
Sun 10:18:04 PM 40.9194 -79.8219 40° Northeast 486 559 35,000  Level Cleveland Center
Sun 10:19:04 PM 41.0228 -79.7025 41° Northeast 486 559 35,000  Level Cleveland Center
Sun 10:20:04 PM 41.1281 -79.5797 41° Northeast 486 559 35,000  Level Cleveland Center
Sun 10:21:04 PM 41.2311 -79.4594 41° Northeast 492 566 35,000  Level Cleveland Center
Sun 10:22:04 PM 41.3361 -79.3331 42° Northeast 492 566 35,000  Level Cleveland Center
Sun 10:23:04 PM 41.4492 -79.1981 42° Northeast 492 566 35,000  Level Cleveland Center
Sun 10:24:04 PM 41.5542 -79.0764 41° Northeast 492 566 35,000  Level Cleveland Center
Sun 10:25:04 PM 41.6586 -78.9544 41° Northeast 497 572 35,000  Level Cleveland Center
Sun 10:26:04 PM 41.7653 -78.8264 42° Northeast 502 578 35,000  Level Cleveland Center
Sun 10:27:04 PM 41.8675 -78.7011 42° Northeast 502 578 35,000  Level Cleveland Center
Sun 10:28:04 PM 41.9717 -78.5750 42° Northeast 502 578 35,000  Level Cleveland Center
Sun 10:29:04 PM 42.0756 -78.4486 42° Northeast 502 578 35,000  Level Cleveland Center
Sun 10:30:04 PM 42.1817 -78.3219 41° Northeast 507 583 35,000  Level Cleveland Center
Sun 10:31:04 PM 42.2853 -78.1947 42° Northeast 507 583 35,000  Level Cleveland Center
Sun 10:32:04 PM 42.3911 -78.0669 42° Northeast 507 583 35,000  Level Cleveland Center
Sun 10:33:04 PM 42.4944 -77.9361 43° Northeast 507 583 35,000  Level Cleveland Center
Sun 10:34:04 PM 42.5756 -77.8369 42° Northeast 507 583 35,000  Level Cleveland Center
Sun 10:35:04 PM 42.6889 -77.6964 42° Northeast 507 583 35,000  Level Cleveland Center
Sun 10:37:27 PM 42.9350 -77.3869 43° Northeast 500 575 35,000  Level Boston Center
Sun 10:38:27 PM 43.0386 -77.2561 43° Northeast 500 575 35,000  Level Boston Center
Sun 10:39:27 PM 43.1419 -77.1247 43° Northeast 500 575 35,000  Level Boston Center
Sun 10:40:27 PM 43.2456 -76.9900 43° Northeast 500 575 35,000  Level Boston Center
Sun 10:41:27 PM 43.3464 -76.8606 43° Northeast 500 575 35,000  Level Boston Center
Sun 10:41:54 PM 43.4000 -76.7667 52° Northeast 510 587 35,000  Level Montreal Center
Sun 10:42:27 PM 43.4517 -76.7281 28° Northeast 500 575 35,000 -452 Level Boston Center
Sun 10:43:27 PM 43.5569 -76.5892 44° Northeast 505 581 34,300 -1,100 Descending Boston Center
Sun 10:44:27 PM 43.6269 -76.4333 58° Northeast 493 567 32,800 -1,500 Descending Boston Center
Sun 10:45:27 PM 43.6728 -76.2525 71° East 480 552 31,300 -1,500 Descending Boston Center
Sun 10:46:27 PM 43.7183 -76.0714 71° East 485 558 29,800 -1,500 Descending Boston Center
Sun 10:47:27 PM 43.7844 -75.8886 63° Northeast 485 558 28,300 -900 Descending Boston Center
Sun 10:48:27 PM 43.9075 -75.8178 23° Northeast 437 503 28,000 -150 Descending Boston Center
Sun 10:49:27 PM 44.0322 -75.7525 21° North 452 520 28,000  Level Boston Center
Sun 10:50:27 PM 44.1592 -75.6872 20° North 464 534 28,000  Level Boston Center
Sun 10:51:27 PM 44.2800 -75.6183 22° Northeast 469 540 28,000  Level Boston Center
Sun 10:52:27 PM 44.4047 -75.5525 21° North 469 540 28,000  Level Boston Center
Sun 10:53:27 PM 44.5275 -75.4833 22° Northeast 469 540 28,000  Level Boston Center
Sun 10:54:27 PM 44.6522 -75.4139 22° Northeast 474 545 28,000  Level Boston Center
Sun 10:54:54 PM 44.6833 -75.3833 35° Northeast 480 552 28,000 -1,517 Level Montreal Center
Sun 10:55:54 PM 44.7833 -75.2333 47° Northeast 480 552 25,800 -2,150 Descending Montreal Center
Sun 10:56:54 PM 44.8667 -75.1167 45° Northeast 460 529 23,700 -2,200 Descending Montreal Center
Sun 10:57:54 PM 44.9500 -74.9667 52° Northeast 440 506 21,400 -2,300 Descending Montreal Center
Sun 10:58:54 PM 45.0000 -74.8333 62° Northeast 430 495 19,100 -2,100 Descending Montreal Center
Sun 10:59:54 PM 45.0667 -74.6833 58° Northeast 410 472 17,200 -2,200 Descending Montreal Center
Sun 11:00:54 PM 45.1333 -74.5667 51° Northeast 390 449 14,700 -2,250 Descending Montreal Center
Sun 11:01:54 PM 45.1833 -74.4500 59° Northeast 370 426 12,700 -1,900 Descending Montreal Center
Sun 11:02:54 PM 45.2333 -74.3333 59° Northeast 350 403 10,900 -1,350 Descending Montreal Center
Sun 11:03:54 PM 45.2833 -74.2333 55° Northeast 300 345 10,000 -1,250 Descending Montreal Center
Sun 11:04:54 PM 45.3333 -74.1333 55° Northeast 280 322 8,400 -1,350 Descending Montreal Center
Sun 11:05:54 PM 45.3500 -74.0333 77° East 270 311 7,300 -1,000 Descending Montreal Center
Sun 11:06:54 PM 45.4000 -73.9667 43° Northeast 270 311 6,400 -700 Descending Montreal Center
Sun 11:07:54 PM 45.4667 -73.8833 41° Northeast 260 299 5,900 -800 Descending Montreal Center
Sun 11:08:54 PM 45.5167 -73.8333 35° Northeast 250 288 4,800 -950 Descending Montreal Center
Sun 11:09:54 PM 45.5667 -73.7667 43° Northeast 230 265 4,000 -900 Descending Montreal Center
Sun 11:10:54 PM 45.6000 -73.7167 46° Northeast 200 230 3,000 -500 Descending Montreal Center
Sun 11:11:54 PM 45.6333 -73.6500 54° Northeast 210 242 3,000  Level Montreal Center
Sun 11:12:54 PM 45.6000 -73.6000 134° Southeast 200 230 3,000  Level Montreal Center

Login

Don't have an account? Register now (free) for customized features, flight alerts, and more!